PWSweather.com
Personal Weather Stations
Station Observations
WISCHPK61
Green Bay Schmitt Park, Green Bay, WI 54311

Green Bay Schmitt ParkGreen Bay, WI 54311

Lat: 44.514277, Lon: -87.935067

Elevation: 735

Station Type: Acu Rite Pro Weather Center model 02032C

http://greenbayweathercam.com

High Low Average
Temperature 47.5°F8.6°C 27.3°F-2.6°C 34.5°F1.4°C
Dew Point 39.4°F4.1°C 27.1°F-2.7°C 33.0°F0.6°C
Winds Calm Calm Calm Calm Calm SCalm S
Wind Gusts 1.2 mph1.9 kmh -- --
Humidity 99% 73% 95%
Pressure 29.28 in991.5 mb 29.21 in989.2 mb -
Precipitation 0.00 in0.0 mm - -
Hour Temp Dew Point Humidity Winds Wind Gusts Pressure Precip Precip Rate Daily Precip Total
12:00 AM 32.2°F0.1°C 32.0°F0.0°C 99% Calm Calm -- 29.24 in990.2 mb - 0.00 in0.0 mm 0.06 in1.5 mm
12:15 AM 32.2°F0.1°C 32.0°F0.0°C 99% Calm Calm -- 29.23 in989.8 mb - 0.00 in0.0 mm 0.06 in1.5 mm
12:30 AM 32.2°F0.1°C 32.0°F0.0°C 99% Calm Calm -- 29.23 in989.8 mb - 0.00 in0.0 mm 0.06 in1.5 mm
12:45 AM 32.5°F0.3°C 32.3°F0.2°C 99% Calm Calm -- 29.23 in989.8 mb - 0.00 in0.0 mm 0.06 in1.5 mm
01:00 AM 32.7°F0.4°C 32.5°F0.3°C 99% Calm Calm -- 29.23 in989.8 mb - 0.00 in0.0 mm 0.00 in0.0 mm
01:15 AM 32.7°F0.4°C 32.5°F0.3°C 99% Calm Calm -- 29.24 in990.2 mb - 0.00 in0.0 mm 0.00 in0.0 mm
01:30 AM 32.7°F0.4°C 32.5°F0.3°C 99% Calm Calm -- 29.24 in990.2 mb - 0.00 in0.0 mm 0.00 in0.0 mm
01:45 AM 32.4°F0.2°C 32.2°F0.1°C 99% Calm Calm -- 29.24 in990.2 mb - 0.00 in0.0 mm 0.00 in0.0 mm
02:00 AM 32.0°F0.0°C 31.8°F-0.1°C 99% Calm Calm -- 29.25 in990.5 mb - 0.00 in0.0 mm 0.00 in0.0 mm
02:15 AM 31.8°F-0.1°C 31.6°F-0.2°C 99% Calm Calm -- 29.25 in990.5 mb - 0.00 in0.0 mm 0.00 in0.0 mm
02:30 AM 31.5°F-0.3°C 31.3°F-0.4°C 99% Calm Calm -- 29.25 in990.5 mb - 0.00 in0.0 mm 0.00 in0.0 mm
02:45 AM 31.1°F-0.5°C 30.9°F-0.6°C 99% Calm Calm -- 29.25 in990.5 mb - 0.00 in0.0 mm 0.00 in0.0 mm
03:00 AM 30.9°F-0.6°C 30.7°F-0.7°C 99% Calm Calm -- 29.25 in990.5 mb - 0.00 in0.0 mm 0.00 in0.0 mm
03:15 AM 30.7°F-0.7°C 30.5°F-0.8°C 99% Calm Calm -- 29.25 in990.5 mb - 0.00 in0.0 mm 0.00 in0.0 mm
03:30 AM 30.6°F-0.8°C 30.4°F-0.9°C 99% Calm Calm -- 29.25 in990.5 mb - 0.00 in0.0 mm 0.00 in0.0 mm
03:45 AM 30.6°F-0.8°C 30.4°F-0.9°C 99% Calm Calm -- 29.25 in990.5 mb - 0.00 in0.0 mm 0.00 in0.0 mm
04:00 AM 30.6°F-0.8°C 30.4°F-0.9°C 99% Calm Calm -- 29.25 in990.5 mb - 0.00 in0.0 mm 0.00 in0.0 mm
04:15 AM 30.6°F-0.8°C 30.4°F-0.9°C 99% Calm Calm -- 29.24 in990.2 mb - 0.00 in0.0 mm 0.00 in0.0 mm
04:30 AM 30.6°F-0.8°C 30.4°F-0.9°C 99% Calm Calm -- 29.24 in990.2 mb - 0.00 in0.0 mm 0.00 in0.0 mm
04:45 AM 30.0°F-1.1°C 29.8°F-1.2°C 99% Calm Calm -- 29.24 in990.2 mb - 0.00 in0.0 mm 0.00 in0.0 mm
05:00 AM 29.7°F-1.3°C 29.5°F-1.4°C 99% Calm Calm -- 29.24 in990.2 mb - 0.00 in0.0 mm 0.00 in0.0 mm
05:15 AM 29.5°F-1.4°C 29.3°F-1.5°C 99% Calm Calm -- 29.23 in989.8 mb - 0.00 in0.0 mm 0.00 in0.0 mm
05:30 AM 29.3°F-1.5°C 29.0°F-1.7°C 99% Calm Calm -- 29.23 in989.8 mb - 0.00 in0.0 mm 0.00 in0.0 mm
05:45 AM 28.9°F-1.7°C 28.7°F-1.8°C 99% Calm Calm -- 29.24 in990.2 mb - 0.00 in0.0 mm 0.00 in0.0 mm
06:00 AM 28.8°F-1.8°C 28.6°F-1.9°C 99% Calm Calm -- 29.23 in989.8 mb - 0.00 in0.0 mm 0.00 in0.0 mm
06:15 AM 28.6°F-1.9°C 28.4°F-2.0°C 99% Calm Calm -- 29.23 in989.8 mb - 0.00 in0.0 mm 0.00 in0.0 mm
06:30 AM 28.2°F-2.1°C 28.0°F-2.2°C 99% Calm Calm -- 29.24 in990.2 mb - 0.00 in0.0 mm 0.00 in0.0 mm
06:45 AM 28.0°F-2.2°C 27.8°F-2.3°C 99% Calm Calm -- 29.24 in990.2 mb - 0.00 in0.0 mm 0.00 in0.0 mm
07:00 AM 27.9°F-2.3°C 27.7°F-2.4°C 99% Calm Calm -- 29.24 in990.2 mb - 0.00 in0.0 mm 0.00 in0.0 mm
07:15 AM 27.9°F-2.3°C 27.7°F-2.4°C 99% Calm Calm -- 29.24 in990.2 mb - 0.00 in0.0 mm 0.00 in0.0 mm
07:30 AM 27.8°F-2.3°C 27.6°F-2.4°C 99% Calm Calm -- 29.25 in990.5 mb - 0.00 in0.0 mm 0.00 in0.0 mm
07:45 AM 27.5°F-2.5°C 27.3°F-2.6°C 99% Calm Calm -- 29.25 in990.5 mb - 0.00 in0.0 mm 0.00 in0.0 mm
08:00 AM 27.3°F-2.6°C 27.1°F-2.7°C 99% Calm Calm -- 29.25 in990.5 mb - 0.00 in0.0 mm 0.00 in0.0 mm
08:15 AM 27.3°F-2.6°C 27.1°F-2.7°C 99% Calm Calm -- 29.25 in990.5 mb - 0.00 in0.0 mm 0.00 in0.0 mm
08:30 AM 27.8°F-2.3°C 27.6°F-2.4°C 99% Calm Calm -- 29.25 in990.5 mb - 0.00 in0.0 mm 0.00 in0.0 mm
08:45 AM 28.4°F-2.0°C 28.2°F-2.1°C 99% Calm Calm -- 29.25 in990.5 mb - 0.00 in0.0 mm 0.00 in0.0 mm
09:00 AM 28.7°F-1.8°C 28.4°F-2.0°C 99% Calm Calm -- 29.25 in990.5 mb - 0.00 in0.0 mm 0.00 in0.0 mm
09:15 AM 29.6°F-1.3°C 29.4°F-1.4°C 99% Calm Calm -- 29.26 in990.9 mb - 0.00 in0.0 mm 0.00 in0.0 mm
09:30 AM 30.7°F-0.7°C 30.5°F-0.8°C 99% Calm Calm -- 29.26 in990.9 mb - 0.00 in0.0 mm 0.00 in0.0 mm
09:45 AM 31.6°F-0.2°C 31.4°F-0.3°C 99% Calm Calm -- 29.25 in990.5 mb - 0.00 in0.0 mm 0.00 in0.0 mm
10:00 AM 32.9°F0.5°C 32.7°F0.4°C 99% Calm Calm -- 29.25 in990.5 mb - 0.00 in0.0 mm 0.00 in0.0 mm
10:15 AM 33.8°F1.0°C 33.5°F0.8°C 99% Calm Calm -- 29.25 in990.5 mb - 0.00 in0.0 mm 0.00 in0.0 mm
10:30 AM 34.7°F1.5°C 34.4°F1.3°C 99% Calm Calm -- 29.26 in990.9 mb - 0.00 in0.0 mm 0.00 in0.0 mm
10:45 AM 35.7°F2.1°C 35.5°F1.9°C 99% Calm Calm -- 29.26 in990.9 mb - 0.00 in0.0 mm 0.00 in0.0 mm
11:00 AM 36.7°F2.6°C 35.7°F2.1°C 96% Calm Calm -- 29.27 in991.2 mb - 0.00 in0.0 mm 0.00 in0.0 mm
11:15 AM 37.8°F3.2°C 36.0°F2.2°C 93% Calm Calm -- 29.27 in991.2 mb - 0.00 in0.0 mm 0.00 in0.0 mm
11:30 AM 38.7°F3.7°C 36.3°F2.4°C 91% Calm Calm -- 29.27 in991.2 mb - 0.00 in0.0 mm 0.00 in0.0 mm
11:45 AM 39.0°F3.9°C 36.0°F2.2°C 89% Calm Calm -- 29.27 in991.2 mb - 0.00 in0.0 mm 0.00 in0.0 mm
12:00 PM 39.0°F3.9°C 36.0°F2.2°C 89% Calm Calm -- 29.27 in991.2 mb - 0.00 in0.0 mm 0.00 in0.0 mm
12:15 PM 39.2°F4.0°C 35.9°F2.2°C 88% Calm Calm -- 29.27 in991.2 mb - 0.00 in0.0 mm 0.00 in0.0 mm
12:30 PM 40.1°F4.5°C 36.2°F2.3°C 86% Calm Calm -- 29.26 in990.9 mb - 0.00 in0.0 mm 0.00 in0.0 mm
12:45 PM 41.0°F5.0°C 37.2°F2.9°C 86% Calm Calm -- 29.26 in990.9 mb - 0.00 in0.0 mm 0.00 in0.0 mm
01:00 PM 42.1°F5.6°C 37.6°F3.1°C 84% Calm Calm -- 29.25 in990.5 mb - 0.00 in0.0 mm 0.00 in0.0 mm
01:15 PM 45.1°F7.3°C 38.6°F3.7°C 78% Calm Calm -- 29.24 in990.2 mb - 0.00 in0.0 mm 0.00 in0.0 mm
01:30 PM 46.4°F8.0°C 39.2°F4.0°C 76% Calm Calm -- 29.24 in990.2 mb - 0.00 in0.0 mm 0.00 in0.0 mm
01:45 PM 47.5°F8.6°C 39.3°F4.1°C 73% Calm Calm -- 29.23 in989.8 mb - 0.00 in0.0 mm 0.00 in0.0 mm
02:00 PM 46.9°F8.3°C 39.4°F4.1°C 75% Calm Calm -- 29.23 in989.8 mb - 0.00 in0.0 mm 0.00 in0.0 mm
02:15 PM 46.9°F8.3°C 39.4°F4.1°C 75% Calm Calm -- 29.22 in989.5 mb - 0.00 in0.0 mm 0.00 in0.0 mm
02:30 PM 46.6°F8.1°C 39.1°F3.9°C 75% Calm Calm -- 29.22 in989.5 mb - 0.00 in0.0 mm 0.00 in0.0 mm
02:45 PM 45.9°F7.7°C 38.8°F3.8°C 76% Calm Calm -- 29.22 in989.5 mb - 0.00 in0.0 mm 0.00 in0.0 mm
03:00 PM 45.5°F7.5°C 38.7°F3.7°C 77% Calm Calm -- 29.21 in989.2 mb - 0.00 in0.0 mm 0.00 in0.0 mm
03:15 PM 45.1°F7.3°C 38.6°F3.7°C 78% Calm Calm -- 29.21 in989.2 mb - 0.00 in0.0 mm 0.00 in0.0 mm
03:30 PM 44.4°F6.9°C 38.3°F3.5°C 79% Calm Calm -- 29.22 in989.5 mb - 0.00 in0.0 mm 0.00 in0.0 mm
03:45 PM 43.5°F6.4°C 37.7°F3.2°C 80% Calm Calm -- 29.22 in989.5 mb - 0.00 in0.0 mm 0.00 in0.0 mm
04:00 PM 42.3°F5.7°C 37.5°F3.1°C 83% Calm Calm -- 29.22 in989.5 mb - 0.00 in0.0 mm 0.00 in0.0 mm
04:15 PM 41.7°F5.4°C 37.2°F2.9°C 84% Calm Calm -- 29.22 in989.5 mb - 0.00 in0.0 mm 0.00 in0.0 mm
04:30 PM 41.2°F5.1°C 37.0°F2.8°C 85% Calm Calm -- 29.23 in989.8 mb - 0.00 in0.0 mm 0.00 in0.0 mm
04:45 PM 40.6°F4.8°C 36.7°F2.6°C 86% Calm Calm -- 29.23 in989.8 mb - 0.00 in0.0 mm 0.00 in0.0 mm
05:00 PM 39.9°F4.4°C 36.6°F2.6°C 88% Calm Calm -- 29.23 in989.8 mb - 0.00 in0.0 mm 0.00 in0.0 mm
05:15 PM 38.8°F3.8°C 36.7°F2.6°C 92% Calm Calm -- 29.25 in990.5 mb - 0.00 in0.0 mm 0.00 in0.0 mm
05:30 PM 37.8°F3.2°C 36.2°F2.3°C 94% Calm Calm -- 29.25 in990.5 mb - 0.00 in0.0 mm 0.00 in0.0 mm
05:45 PM 36.5°F2.5°C 35.5°F1.9°C 96% Calm Calm -- 29.24 in990.2 mb - 0.00 in0.0 mm 0.00 in0.0 mm
06:00 PM 35.8°F2.1°C 35.0°F1.7°C 97% Calm Calm -- 29.25 in990.5 mb - 0.00 in0.0 mm 0.00 in0.0 mm
06:15 PM 34.7°F1.5°C 34.4°F1.3°C 99% Calm Calm -- 29.25 in990.5 mb - 0.00 in0.0 mm 0.00 in0.0 mm
06:30 PM 33.8°F1.0°C 33.5°F0.8°C 99% Calm Calm -- 29.25 in990.5 mb - 0.00 in0.0 mm 0.00 in0.0 mm
06:45 PM 33.4°F0.8°C 33.1°F0.6°C 99% Calm Calm 1.2 mph1.9 kmh 29.26 in990.9 mb - 0.00 in0.0 mm 0.00 in0.0 mm
07:00 PM 33.1°F0.6°C 32.9°F0.5°C 99% Calm Calm -- 29.27 in991.2 mb - 0.00 in0.0 mm 0.00 in0.0 mm
07:15 PM 32.9°F0.5°C 32.7°F0.4°C 99% Calm Calm -- 29.27 in991.2 mb - 0.00 in0.0 mm 0.00 in0.0 mm
07:30 PM 32.9°F0.5°C 32.7°F0.4°C 99% Calm Calm 1.2 mph1.9 kmh 29.27 in991.2 mb - 0.00 in0.0 mm 0.00 in0.0 mm
07:45 PM 32.7°F0.4°C 32.5°F0.3°C 99% Calm Calm -- 29.27 in991.2 mb - 0.00 in0.0 mm 0.00 in0.0 mm
08:00 PM 32.7°F0.4°C 32.5°F0.3°C 99% Calm Calm -- 29.26 in990.9 mb - 0.00 in0.0 mm 0.00 in0.0 mm
08:15 PM 32.9°F0.5°C 32.7°F0.4°C 99% Calm Calm -- 29.26 in990.9 mb - 0.00 in0.0 mm 0.00 in0.0 mm
08:30 PM 33.1°F0.6°C 32.9°F0.5°C 99% Calm Calm -- 29.27 in991.2 mb - 0.00 in0.0 mm 0.00 in0.0 mm
08:45 PM 33.1°F0.6°C 32.9°F0.5°C 99% Calm Calm -- 29.27 in991.2 mb - 0.00 in0.0 mm 0.00 in0.0 mm
09:00 PM 33.1°F0.6°C 32.9°F0.5°C 99% Calm Calm -- 29.27 in991.2 mb - 0.00 in0.0 mm 0.00 in0.0 mm
09:15 PM 33.1°F0.6°C 32.9°F0.5°C 99% Calm Calm -- 29.26 in990.9 mb - 0.00 in0.0 mm 0.00 in0.0 mm
09:30 PM 33.1°F0.6°C 32.9°F0.5°C 99% Calm Calm -- 29.26 in990.9 mb - 0.00 in0.0 mm 0.00 in0.0 mm
09:45 PM 33.3°F0.7°C 33.0°F0.6°C 99% Calm Calm -- 29.26 in990.9 mb - 0.00 in0.0 mm 0.00 in0.0 mm
10:00 PM 33.3°F0.7°C 33.0°F0.6°C 99% Calm Calm -- 29.26 in990.9 mb - 0.00 in0.0 mm 0.00 in0.0 mm
10:15 PM 33.3°F0.7°C 33.0°F0.6°C 99% Calm Calm -- 29.27 in991.2 mb - 0.00 in0.0 mm 0.00 in0.0 mm
10:30 PM 33.1°F0.6°C 32.9°F0.5°C 99% Calm Calm -- 29.28 in991.5 mb - 0.00 in0.0 mm 0.00 in0.0 mm
10:45 PM 32.7°F0.4°C 32.5°F0.3°C 99% Calm Calm -- 29.27 in991.2 mb - 0.00 in0.0 mm 0.00 in0.0 mm
11:00 PM 32.2°F0.1°C 32.0°F0.0°C 99% Calm Calm -- 29.27 in991.2 mb - 0.00 in0.0 mm 0.00 in0.0 mm
11:15 PM 32.0°F0.0°C 31.8°F-0.1°C 99% Calm Calm -- 29.26 in990.9 mb - 0.00 in0.0 mm 0.00 in0.0 mm
11:30 PM 31.8°F-0.1°C 31.6°F-0.2°C 99% Calm Calm -- 29.25 in990.5 mb - 0.00 in0.0 mm 0.00 in0.0 mm
11:45 PM 31.8°F-0.1°C 31.6°F-0.2°C 99% Calm Calm -- 29.25 in990.5 mb - 0.00 in0.0 mm 0.00 in0.0 mm